sensor_id;sensor_type;location;lat;lon;timestamp;temperature;humidity
14884;DHT22;7534;50.762;7.000;2023-09-08T00:02:27;17.50;99.90
14884;DHT22;7534;50.762;7.000;2023-09-08T00:04:54;17.60;99.90
14884;DHT22;7534;50.762;7.000;2023-09-08T00:07:20;17.50;99.90
14884;DHT22;7534;50.762;7.000;2023-09-08T00:09:46;17.50;99.90
14884;DHT22;7534;50.762;7.000;2023-09-08T00:12:12;17.40;99.90
14884;DHT22;7534;50.762;7.000;2023-09-08T00:14:39;17.50;99.90
14884;DHT22;7534;50.762;7.000;2023-09-08T00:17:04;17.50;99.90
14884;DHT22;7534;50.762;7.000;2023-09-08T00:19:30;17.40;99.90
14884;DHT22;7534;50.762;7.000;2023-09-08T00:21:56;17.40;99.90
14884;DHT22;7534;50.762;7.000;2023-09-08T00:24:22;17.40;99.90
14884;DHT22;7534;50.762;7.000;2023-09-08T00:26:48;17.50;99.90
14884;DHT22;7534;50.762;7.000;2023-09-08T00:29:14;17.50;99.90
14884;DHT22;7534;50.762;7.000;2023-09-08T00:31:39;17.50;99.90
14884;DHT22;7534;50.762;7.000;2023-09-08T00:34:06;17.50;99.90
14884;DHT22;7534;50.762;7.000;2023-09-08T00:36:32;17.50;99.90
14884;DHT22;7534;50.762;7.000;2023-09-08T00:38:58;17.40;99.90
14884;DHT22;7534;50.762;7.000;2023-09-08T00:41:23;17.40;99.90
14884;DHT22;7534;50.762;7.000;2023-09-08T00:43:50;17.50;99.90
14884;DHT22;7534;50.762;7.000;2023-09-08T00:46:16;17.40;99.90
14884;DHT22;7534;50.762;7.000;2023-09-08T00:48:42;17.40;99.90
14884;DHT22;7534;50.762;7.000;2023-09-08T00:51:08;17.40;99.90
14884;DHT22;7534;50.762;7.000;2023-09-08T00:53:36;17.40;99.90
14884;DHT22;7534;50.762;7.000;2023-09-08T00:56:02;17.40;99.90
14884;DHT22;7534;50.762;7.000;2023-09-08T00:58:29;17.30;99.90
14884;DHT22;7534;50.762;7.000;2023-09-08T01:00:56;17.20;99.90
14884;DHT22;7534;50.762;7.000;2023-09-08T01:03:24;17.10;99.90
14884;DHT22;7534;50.762;7.000;2023-09-08T01:05:50;17.10;99.90
14884;DHT22;7534;50.762;7.000;2023-09-08T01:08:17;17.00;99.90
14884;DHT22;7534;50.762;7.000;2023-09-08T01:10:45;17.00;99.90
14884;DHT22;7534;50.762;7.000;2023-09-08T01:13:11;17.00;99.90
14884;DHT22;7534;50.762;7.000;2023-09-08T01:15:37;16.90;99.90
14884;DHT22;7534;50.762;7.000;2023-09-08T01:18:02;16.90;99.90
14884;DHT22;7534;50.762;7.000;2023-09-08T01:24:05;16.80;99.90
14884;DHT22;7534;50.762;7.000;2023-09-08T01:26:46;16.80;99.90
14884;DHT22;7534;50.762;7.000;2023-09-08T01:29:14;16.80;99.90
14884;DHT22;7534;50.762;7.000;2023-09-08T01:31:42;16.80;99.90
14884;DHT22;7534;50.762;7.000;2023-09-08T01:34:08;16.70;99.90
14884;DHT22;7534;50.762;7.000;2023-09-08T01:36:35;16.70;99.90
14884;DHT22;7534;50.762;7.000;2023-09-08T01:39:03;16.70;99.90
14884;DHT22;7534;50.762;7.000;2023-09-08T01:41:49;16.70;99.90
14884;DHT22;7534;50.762;7.000;2023-09-08T01:44:18;16.70;99.90
14884;DHT22;7534;50.762;7.000;2023-09-08T01:46:43;16.70;99.90
14884;DHT22;7534;50.762;7.000;2023-09-08T01:49:09;16.50;99.90
14884;DHT22;7534;50.762;7.000;2023-09-08T01:51:35;16.40;99.90
14884;DHT22;7534;50.762;7.000;2023-09-08T01:54:01;16.40;99.90
14884;DHT22;7534;50.762;7.000;2023-09-08T01:56:26;16.50;99.90
14884;DHT22;7534;50.762;7.000;2023-09-08T01:58:52;16.40;99.90
14884;DHT22;7534;50.762;7.000;2023-09-08T02:01:18;16.40;99.90
14884;DHT22;7534;50.762;7.000;2023-09-08T02:03:43;16.40;99.90
14884;DHT22;7534;50.762;7.000;2023-09-08T02:06:09;16.50;99.90
14884;DHT22;7534;50.762;7.000;2023-09-08T02:08:35;16.30;99.90
14884;DHT22;7534;50.762;7.000;2023-09-08T02:11:00;16.30;99.90
14884;DHT22;7534;50.762;7.000;2023-09-08T02:13:26;16.20;99.90
14884;DHT22;7534;50.762;7.000;2023-09-08T02:15:52;16.20;99.90
14884;DHT22;7534;50.762;7.000;2023-09-08T02:18:17;16.30;99.90
14884;DHT22;7534;50.762;7.000;2023-09-08T02:20:43;16.30;99.90
14884;DHT22;7534;50.762;7.000;2023-09-08T02:23:09;16.30;99.90
14884;DHT22;7534;50.762;7.000;2023-09-08T02:25:35;16.10;99.90
14884;DHT22;7534;50.762;7.000;2023-09-08T02:28:00;16.00;99.90
14884;DHT22;7534;50.762;7.000;2023-09-08T02:30:26;16.10;99.90
14884;DHT22;7534;50.762;7.000;2023-09-08T02:32:52;16.10;99.90
14884;DHT22;7534;50.762;7.000;2023-09-08T02:35:17;16.10;99.90
14884;DHT22;7534;50.762;7.000;2023-09-08T02:37:43;16.10;99.90
14884;DHT22;7534;50.762;7.000;2023-09-08T02:40:09;15.90;99.90
14884;DHT22;7534;50.762;7.000;2023-09-08T02:42:35;16.00;99.90
14884;DHT22;7534;50.762;7.000;2023-09-08T02:45:00;16.00;99.90
14884;DHT22;7534;50.762;7.000;2023-09-08T02:47:26;16.00;99.90
14884;DHT22;7534;50.762;7.000;2023-09-08T02:49:52;16.00;99.90
14884;DHT22;7534;50.762;7.000;2023-09-08T02:52:17;16.10;99.90
14884;DHT22;7534;50.762;7.000;2023-09-08T02:54:45;16.00;99.90
14884;DHT22;7534;50.762;7.000;2023-09-08T02:57:10;16.00;99.90
14884;DHT22;7534;50.762;7.000;2023-09-08T02:59:36;16.00;99.90
14884;DHT22;7534;50.762;7.000;2023-09-08T03:02:02;15.90;99.90
14884;DHT22;7534;50.762;7.000;2023-09-08T03:04:27;16.00;99.90
14884;DHT22;7534;50.762;7.000;2023-09-08T03:06:53;15.90;99.90
14884;DHT22;7534;50.762;7.000;2023-09-08T03:09:19;15.80;99.90
14884;DHT22;7534;50.762;7.000;2023-09-08T03:11:44;15.80;99.90
14884;DHT22;7534;50.762;7.000;2023-09-08T03:14:10;15.80;99.90
14884;DHT22;7534;50.762;7.000;2023-09-08T03:16:36;15.70;99.90
14884;DHT22;7534;50.762;7.000;2023-09-08T03:19:01;15.70;99.90
14884;DHT22;7534;50.762;7.000;2023-09-08T03:21:27;15.70;99.90
14884;DHT22;7534;50.762;7.000;2023-09-08T03:23:52;15.70;99.90
14884;DHT22;7534;50.762;7.000;2023-09-08T03:26:18;15.70;99.90
14884;DHT22;7534;50.762;7.000;2023-09-08T03:28:44;15.60;99.90
14884;DHT22;7534;50.762;7.000;2023-09-08T03:31:10;15.70;99.90
14884;DHT22;7534;50.762;7.000;2023-09-08T03:33:36;15.80;99.90
14884;DHT22;7534;50.762;7.000;2023-09-08T03:36:01;16.00;99.90
14884;DHT22;7534;50.762;7.000;2023-09-08T03:38:27;16.20;99.90
14884;DHT22;7534;50.762;7.000;2023-09-08T03:40:53;16.20;99.90
14884;DHT22;7534;50.762;7.000;2023-09-08T03:43:19;16.30;99.90
14884;DHT22;7534;50.762;7.000;2023-09-08T03:45:44;16.30;99.90
14884;DHT22;7534;50.762;7.000;2023-09-08T03:48:10;16.40;99.90
14884;DHT22;7534;50.762;7.000;2023-09-08T03:50:36;16.30;99.90
14884;DHT22;7534;50.762;7.000;2023-09-08T03:53:02;16.40;99.90
14884;DHT22;7534;50.762;7.000;2023-09-08T03:55:27;16.50;99.90
14884;DHT22;7534;50.762;7.000;2023-09-08T03:57:56;16.40;99.90
14884;DHT22;7534;50.762;7.000;2023-09-08T04:00:22;16.50;99.90
14884;DHT22;7534;50.762;7.000;2023-09-08T04:02:52;16.50;99.90
14884;DHT22;7534;50.762;7.000;2023-09-08T04:05:18;16.50;99.90
14884;DHT22;7534;50.762;7.000;2023-09-08T04:07:46;16.50;99.90
14884;DHT22;7534;50.762;7.000;2023-09-08T04:10:12;16.40;99.90
14884;DHT22;7534;50.762;7.000;2023-09-08T04:12:39;16.30;99.90
14884;DHT22;7534;50.762;7.000;2023-09-08T04:15:05;16.10;99.90
14884;DHT22;7534;50.762;7.000;2023-09-08T04:17:32;16.10;99.90
14884;DHT22;7534;50.762;7.000;2023-09-08T04:19:58;15.90;99.90
14884;DHT22;7534;50.762;7.000;2023-09-08T04:22:24;15.90;99.90
14884;DHT22;7534;50.762;7.000;2023-09-08T04:24:50;15.70;99.90
14884;DHT22;7534;50.762;7.000;2023-09-08T04:27:15;15.70;99.90
14884;DHT22;7534;50.762;7.000;2023-09-08T04:29:41;15.60;99.90
14884;DHT22;7534;50.762;7.000;2023-09-08T04:32:07;15.50;99.90
14884;DHT22;7534;50.762;7.000;2023-09-08T04:34:38;15.50;99.90
14884;DHT22;7534;50.762;7.000;2023-09-08T04:37:05;15.50;99.90
14884;DHT22;7534;50.762;7.000;2023-09-08T04:39:32;15.30;99.90
14884;DHT22;7534;50.762;7.000;2023-09-08T04:41:58;15.40;99.90
14884;DHT22;7534;50.762;7.000;2023-09-08T04:44:24;15.50;99.90
14884;DHT22;7534;50.762;7.000;2023-09-08T04:46:51;15.60;99.90
14884;DHT22;7534;50.762;7.000;2023-09-08T04:49:17;15.80;99.90
14884;DHT22;7534;50.762;7.000;2023-09-08T04:51:43;15.80;99.90
14884;DHT22;7534;50.762;7.000;2023-09-08T04:54:09;15.80;99.90
14884;DHT22;7534;50.762;7.000;2023-09-08T04:56:35;15.80;99.90
14884;DHT22;7534;50.762;7.000;2023-09-08T04:59:00;15.90;99.90
14884;DHT22;7534;50.762;7.000;2023-09-08T05:01:27;15.90;99.90
14884;DHT22;7534;50.762;7.000;2023-09-08T05:03:53;15.90;99.90
14884;DHT22;7534;50.762;7.000;2023-09-08T05:06:20;15.80;99.90
14884;DHT22;7534;50.762;7.000;2023-09-08T05:08:46;15.70;99.90
14884;DHT22;7534;50.762;7.000;2023-09-08T05:11:11;15.60;99.90
14884;DHT22;7534;50.762;7.000;2023-09-08T05:13:37;15.50;99.90
14884;DHT22;7534;50.762;7.000;2023-09-08T05:16:04;15.80;99.90
14884;DHT22;7534;50.762;7.000;2023-09-08T05:18:40;16.00;99.90
14884;DHT22;7534;50.762;7.000;2023-09-08T05:21:07;16.20;99.90
14884;DHT22;7534;50.762;7.000;2023-09-08T05:23:33;16.20;99.90
14884;DHT22;7534;50.762;7.000;2023-09-08T05:26:00;16.40;99.90
14884;DHT22;7534;50.762;7.000;2023-09-08T05:28:26;16.40;99.90
14884;DHT22;7534;50.762;7.000;2023-09-08T05:30:53;16.40;99.90
14884;DHT22;7534;50.762;7.000;2023-09-08T05:33:19;16.40;99.90
14884;DHT22;7534;50.762;7.000;2023-09-08T05:35:45;16.60;99.90
14884;DHT22;7534;50.762;7.000;2023-09-08T05:38:11;16.80;99.90
14884;DHT22;7534;50.762;7.000;2023-09-08T05:40:37;16.80;99.90
14884;DHT22;7534;50.762;7.000;2023-09-08T05:43:03;16.90;99.90
14884;DHT22;7534;50.762;7.000;2023-09-08T05:45:31;17.10;99.90
14884;DHT22;7534;50.762;7.000;2023-09-08T05:47:57;17.10;99.90
14884;DHT22;7534;50.762;7.000;2023-09-08T05:50:23;17.30;99.90
14884;DHT22;7534;50.762;7.000;2023-09-08T05:52:49;17.40;99.90
14884;DHT22;7534;50.762;7.000;2023-09-08T05:55:16;17.40;99.90
14884;DHT22;7534;50.762;7.000;2023-09-08T05:57:42;17.40;99.90
14884;DHT22;7534;50.762;7.000;2023-09-08T06:00:08;17.60;99.90
14884;DHT22;7534;50.762;7.000;2023-09-08T06:02:34;17.70;99.90
14884;DHT22;7534;50.762;7.000;2023-09-08T06:05:00;17.90;99.90
14884;DHT22;7534;50.762;7.000;2023-09-08T06:07:25;18.00;99.90
14884;DHT22;7534;50.762;7.000;2023-09-08T06:09:51;18.10;99.90
14884;DHT22;7534;50.762;7.000;2023-09-08T06:12:17;18.10;99.90
14884;DHT22;7534;50.762;7.000;2023-09-08T06:14:43;18.20;99.90
14884;DHT22;7534;50.762;7.000;2023-09-08T06:17:09;18.20;99.90
14884;DHT22;7534;50.762;7.000;2023-09-08T06:19:35;18.40;99.90
14884;DHT22;7534;50.762;7.000;2023-09-08T06:22:01;18.60;99.90
14884;DHT22;7534;50.762;7.000;2023-09-08T06:24:27;18.80;99.90
14884;DHT22;7534;50.762;7.000;2023-09-08T06:26:53;19.00;99.90
14884;DHT22;7534;50.762;7.000;2023-09-08T06:29:18;19.50;99.90
14884;DHT22;7534;50.762;7.000;2023-09-08T06:31:44;20.40;99.90
14884;DHT22;7534;50.762;7.000;2023-09-08T06:34:10;21.70;99.90
14884;DHT22;7534;50.762;7.000;2023-09-08T06:39:02;24.30;97.30
14884;DHT22;7534;50.762;7.000;2023-09-08T06:41:29;26.10;99.00
14884;DHT22;7534;50.762;7.000;2023-09-08T06:43:57;28.60;99.90
14884;DHT22;7534;50.762;7.000;2023-09-08T06:48:48;29.90;93.60
14884;DHT22;7534;50.762;7.000;2023-09-08T06:51:14;30.90;95.90
14884;DHT22;7534;50.762;7.000;2023-09-08T06:53:42;31.70;97.60
14884;DHT22;7534;50.762;7.000;2023-09-08T06:58:36;32.80;90.90
14884;DHT22;7534;50.762;7.000;2023-09-08T07:01:02;33.50;86.90
14884;DHT22;7534;50.762;7.000;2023-09-08T07:03:28;33.90;82.60
14884;DHT22;7534;50.762;7.000;2023-09-08T07:05:54;33.90;81.00
14884;DHT22;7534;50.762;7.000;2023-09-08T07:08:19;34.10;83.50
14884;DHT22;7534;50.762;7.000;2023-09-08T07:10:51;34.10;77.10
14884;DHT22;7534;50.762;7.000;2023-09-08T07:13:17;33.60;76.80
14884;DHT22;7534;50.762;7.000;2023-09-08T07:15:43;34.20;75.70
14884;DHT22;7534;50.762;7.000;2023-09-08T07:18:08;34.60;74.40
14884;DHT22;7534;50.762;7.000;2023-09-08T07:20:34;34.60;74.00
14884;DHT22;7534;50.762;7.000;2023-09-08T07:23:00;34.40;72.20
14884;DHT22;7534;50.762;7.000;2023-09-08T07:25:26;35.20;52.00
14884;DHT22;7534;50.762;7.000;2023-09-08T07:27:51;35.20;50.70
14884;DHT22;7534;50.762;7.000;2023-09-08T07:32:45;36.30;49.80
14884;DHT22;7534;50.762;7.000;2023-09-08T07:35:11;37.20;52.30
14884;DHT22;7534;50.762;7.000;2023-09-08T07:37:45;39.80;48.30
14884;DHT22;7534;50.762;7.000;2023-09-08T07:40:11;39.70;48.80
14884;DHT22;7534;50.762;7.000;2023-09-08T07:42:37;40.90;72.00
14884;DHT22;7534;50.762;7.000;2023-09-08T07:45:03;41.90;65.80
14884;DHT22;7534;50.762;7.000;2023-09-08T07:47:29;42.30;68.00
14884;DHT22;7534;50.762;7.000;2023-09-08T07:50:16;42.10;67.00
14884;DHT22;7534;50.762;7.000;2023-09-08T07:53:01;42.00;67.40
14884;DHT22;7534;50.762;7.000;2023-09-08T07:55:27;42.10;63.70
14884;DHT22;7534;50.762;7.000;2023-09-08T07:57:55;42.30;62.60
14884;DHT22;7534;50.762;7.000;2023-09-08T08:00:21;43.10;64.20
14884;DHT22;7534;50.762;7.000;2023-09-08T08:02:51;44.20;61.00
14884;DHT22;7534;50.762;7.000;2023-09-08T08:05:19;43.40;59.60
14884;DHT22;7534;50.762;7.000;2023-09-08T08:07:45;42.50;59.30
14884;DHT22;7534;50.762;7.000;2023-09-08T08:10:12;41.90;58.90
14884;DHT22;7534;50.762;7.000;2023-09-08T08:12:39;41.50;61.10
14884;DHT22;7534;50.762;7.000;2023-09-08T08:15:06;40.20;64.60
14884;DHT22;7534;50.762;7.000;2023-09-08T08:17:32;40.30;63.70
14884;DHT22;7534;50.762;7.000;2023-09-08T08:19:58;40.20;63.90
14884;DHT22;7534;50.762;7.000;2023-09-08T08:22:25;40.30;64.20
14884;DHT22;7534;50.762;7.000;2023-09-08T08:24:51;40.60;65.10
14884;DHT22;7534;50.762;7.000;2023-09-08T08:29:43;38.90;64.90
14884;DHT22;7534;50.762;7.000;2023-09-08T08:32:09;38.60;69.70
14884;DHT22;7534;50.762;7.000;2023-09-08T08:34:34;37.70;66.40
14884;DHT22;7534;50.762;7.000;2023-09-08T08:37:00;38.60;61.10
14884;DHT22;7534;50.762;7.000;2023-09-08T08:39:27;37.70;42.90
14884;DHT22;7534;50.762;7.000;2023-09-08T08:41:53;37.30;35.50
14884;DHT22;7534;50.762;7.000;2023-09-08T08:44:20;37.00;36.30
14884;DHT22;7534;50.762;7.000;2023-09-08T08:46:47;37.00;36.80
14884;DHT22;7534;50.762;7.000;2023-09-08T08:49:15;36.90;36.70
14884;DHT22;7534;50.762;7.000;2023-09-08T08:51:45;36.70;37.20
14884;DHT22;7534;50.762;7.000;2023-09-08T08:54:15;36.40;37.60
14884;DHT22;7534;50.762;7.000;2023-09-08T08:56:42;36.80;37.10
14884;DHT22;7534;50.762;7.000;2023-09-08T08:59:10;36.30;38.00
14884;DHT22;7534;50.762;7.000;2023-09-08T09:01:36;36.20;38.00
14884;DHT22;7534;50.762;7.000;2023-09-08T09:04:05;35.80;42.80
14884;DHT22;7534;50.762;7.000;2023-09-08T09:06:32;36.10;38.70
14884;DHT22;7534;50.762;7.000;2023-09-08T09:08:59;36.30;38.50
14884;DHT22;7534;50.762;7.000;2023-09-08T09:11:25;36.90;37.50
14884;DHT22;7534;50.762;7.000;2023-09-08T09:13:50;36.80;37.70
14884;DHT22;7534;50.762;7.000;2023-09-08T09:16:16;36.70;38.10
14884;DHT22;7534;50.762;7.000;2023-09-08T09:21:21;36.70;38.10
14884;DHT22;7534;50.762;7.000;2023-09-08T09:23:47;37.40;36.60
14884;DHT22;7534;50.762;7.000;2023-09-08T09:26:51;37.80;36.40
14884;DHT22;7534;50.762;7.000;2023-09-08T09:29:18;38.50;40.30
14884;DHT22;7534;50.762;7.000;2023-09-08T09:31:55;37.90;40.50
14884;DHT22;7534;50.762;7.000;2023-09-08T09:34:28;37.40;41.60
14884;DHT22;7534;50.762;7.000;2023-09-08T09:36:55;38.20;41.30
14884;DHT22;7534;50.762;7.000;2023-09-08T09:39:24;38.90;40.10
14884;DHT22;7534;50.762;7.000;2023-09-08T09:41:57;38.20;41.20
14884;DHT22;7534;50.762;7.000;2023-09-08T09:44:24;37.70;41.70
14884;DHT22;7534;50.762;7.000;2023-09-08T09:46:52;37.50;42.90
14884;DHT22;7534;50.762;7.000;2023-09-08T09:49:19;37.70;42.60
14884;DHT22;7534;50.762;7.000;2023-09-08T09:51:47;37.60;42.70
14884;DHT22;7534;50.762;7.000;2023-09-08T09:54:14;38.30;41.90
14884;DHT22;7534;50.762;7.000;2023-09-08T09:56:41;38.20;41.60
14884;DHT22;7534;50.762;7.000;2023-09-08T09:59:13;38.30;41.80
14884;DHT22;7534;50.762;7.000;2023-09-08T10:01:40;37.90;42.20
14884;DHT22;7534;50.762;7.000;2023-09-08T10:04:07;38.00;42.20
14884;DHT22;7534;50.762;7.000;2023-09-08T10:06:37;37.60;43.00
14884;DHT22;7534;50.762;7.000;2023-09-08T10:09:06;37.60;43.00
14884;DHT22;7534;50.762;7.000;2023-09-08T10:11:42;37.50;43.80
14884;DHT22;7534;50.762;7.000;2023-09-08T10:14:15;37.20;43.80
14884;DHT22;7534;50.762;7.000;2023-09-08T10:16:45;37.20;44.20
14884;DHT22;7534;50.762;7.000;2023-09-08T10:19:15;36.80;45.70
14884;DHT22;7534;50.762;7.000;2023-09-08T10:21:45;36.00;49.60
14884;DHT22;7534;50.762;7.000;2023-09-08T10:24:15;35.50;55.70
14884;DHT22;7534;50.762;7.000;2023-09-08T10:27:03;34.80;61.00
14884;DHT22;7534;50.762;7.000;2023-09-08T10:29:32;34.30;73.90
14884;DHT22;7534;50.762;7.000;2023-09-08T10:31:59;34.00;74.00
14884;DHT22;7534;50.762;7.000;2023-09-08T10:34:27;33.90;75.60
14884;DHT22;7534;50.762;7.000;2023-09-08T10:36:55;33.70;77.00
14884;DHT22;7534;50.762;7.000;2023-09-08T11:16:07;32.10;92.90
14884;DHT22;7534;50.762;7.000;2023-09-08T11:18:33;32.10;92.90
14884;DHT22;7534;50.762;7.000;2023-09-08T11:23:28;32.30;92.60
14884;DHT22;7534;50.762;7.000;2023-09-08T11:25:54;32.00;93.50
14884;DHT22;7534;50.762;7.000;2023-09-08T11:28:24;31.60;93.70
14884;DHT22;7534;50.762;7.000;2023-09-08T11:30:54;31.70;93.80
14884;DHT22;7534;50.762;7.000;2023-09-08T11:33:22;31.60;93.60
14884;DHT22;7534;50.762;7.000;2023-09-08T11:35:52;31.60;93.50
14884;DHT22;7534;50.762;7.000;2023-09-08T11:38:24;31.70;93.50
14884;DHT22;7534;50.762;7.000;2023-09-08T11:43:22;32.00;93.30
14884;DHT22;7534;50.762;7.000;2023-09-08T11:45:48;32.30;93.60
14884;DHT22;7534;50.762;7.000;2023-09-08T11:48:15;32.70;93.30
14884;DHT22;7534;50.762;7.000;2023-09-08T11:50:42;32.70;92.60
14884;DHT22;7534;50.762;7.000;2023-09-08T11:53:08;32.90;91.90
14884;DHT22;7534;50.762;7.000;2023-09-08T11:55:37;32.90;92.10
14884;DHT22;7534;50.762;7.000;2023-09-08T11:58:04;33.10;91.60
14884;DHT22;7534;50.762;7.000;2023-09-08T12:00:31;33.10;91.50
14884;DHT22;7534;50.762;7.000;2023-09-08T12:03:10;33.10;91.70
14884;DHT22;7534;50.762;7.000;2023-09-08T12:05:44;33.10;91.30
14884;DHT22;7534;50.762;7.000;2023-09-08T12:08:16;32.90;91.40
14884;DHT22;7534;50.762;7.000;2023-09-08T12:10:42;33.00;91.50
14884;DHT22;7534;50.762;7.000;2023-09-08T12:13:09;32.90;91.40
14884;DHT22;7534;50.762;7.000;2023-09-08T12:15:39;33.10;91.30
14884;DHT22;7534;50.762;7.000;2023-09-08T12:18:08;33.00;91.60
14884;DHT22;7534;50.762;7.000;2023-09-08T12:20:37;33.10;91.20
14884;DHT22;7534;50.762;7.000;2023-09-08T12:23:06;33.10;91.20
14884;DHT22;7534;50.762;7.000;2023-09-08T12:25:52;33.20;91.10
14884;DHT22;7534;50.762;7.000;2023-09-08T12:28:20;33.30;46.80
14884;DHT22;7534;50.762;7.000;2023-09-08T12:31:20;33.10;47.90
14884;DHT22;7534;50.762;7.000;2023-09-08T12:33:39;33.10;47.60
14884;DHT22;7534;50.762;7.000;2023-09-08T12:36:16;33.40;46.60
14884;DHT22;7534;50.762;7.000;2023-09-08T12:38:51;33.60;46.60
14884;DHT22;7534;50.762;7.000;2023-09-08T12:41:17;33.40;46.70
14884;DHT22;7534;50.762;7.000;2023-09-08T12:44:14;33.50;46.20
14884;DHT22;7534;50.762;7.000;2023-09-08T12:46:40;33.40;45.90
14884;DHT22;7534;50.762;7.000;2023-09-08T12:49:06;33.70;45.50
14884;DHT22;7534;50.762;7.000;2023-09-08T12:51:32;33.40;46.30
14884;DHT22;7534;50.762;7.000;2023-09-08T12:53:58;33.30;46.10
14884;DHT22;7534;50.762;7.000;2023-09-08T12:56:24;33.40;46.10
14884;DHT22;7534;50.762;7.000;2023-09-08T12:58:54;33.30;46.40
14884;DHT22;7534;50.762;7.000;2023-09-08T13:01:19;33.30;47.40
14884;DHT22;7534;50.762;7.000;2023-09-08T13:03:45;33.30;46.10
14884;DHT22;7534;50.762;7.000;2023-09-08T13:06:11;33.40;46.10
14884;DHT22;7534;50.762;7.000;2023-09-08T13:08:39;33.40;45.90
14884;DHT22;7534;50.762;7.000;2023-09-08T13:11:11;33.40;45.20
14884;DHT22;7534;50.762;7.000;2023-09-08T13:13:37;33.60;46.30
14884;DHT22;7534;50.762;7.000;2023-09-08T13:16:03;33.80;45.80
14884;DHT22;7534;50.762;7.000;2023-09-08T13:18:28;33.90;46.40
14884;DHT22;7534;50.762;7.000;2023-09-08T13:21:01;34.00;45.10
14884;DHT22;7534;50.762;7.000;2023-09-08T13:23:28;33.90;45.60
14884;DHT22;7534;50.762;7.000;2023-09-08T13:25:56;34.00;45.80
14884;DHT22;7534;50.762;7.000;2023-09-08T13:28:22;33.60;46.50
14884;DHT22;7534;50.762;7.000;2023-09-08T13:30:48;33.70;46.30
14884;DHT22;7534;50.762;7.000;2023-09-08T13:33:13;33.70;45.40
14884;DHT22;7534;50.762;7.000;2023-09-08T13:35:40;34.00;44.60
14884;DHT22;7534;50.762;7.000;2023-09-08T13:38:05;34.10;44.50
14884;DHT22;7534;50.762;7.000;2023-09-08T13:40:31;34.30;45.20
14884;DHT22;7534;50.762;7.000;2023-09-08T13:42:57;34.10;45.40
14884;DHT22;7534;50.762;7.000;2023-09-08T13:45:24;34.20;45.60
14884;DHT22;7534;50.762;7.000;2023-09-08T13:47:49;34.30;45.40
14884;DHT22;7534;50.762;7.000;2023-09-08T13:50:16;34.10;45.60
14884;DHT22;7534;50.762;7.000;2023-09-08T13:52:42;34.10;45.80
14884;DHT22;7534;50.762;7.000;2023-09-08T13:55:09;34.00;46.80
14884;DHT22;7534;50.762;7.000;2023-09-08T13:57:36;34.10;46.60
14884;DHT22;7534;50.762;7.000;2023-09-08T14:00:03;34.00;46.50
14884;DHT22;7534;50.762;7.000;2023-09-08T14:02:29;33.90;47.00
14884;DHT22;7534;50.762;7.000;2023-09-08T14:04:55;33.70;46.80
14884;DHT22;7534;50.762;7.000;2023-09-08T14:07:20;33.90;46.40
14884;DHT22;7534;50.762;7.000;2023-09-08T14:09:46;33.80;47.00
14884;DHT22;7534;50.762;7.000;2023-09-08T14:12:12;33.80;47.50
14884;DHT22;7534;50.762;7.000;2023-09-08T14:14:37;33.80;46.40
14884;DHT22;7534;50.762;7.000;2023-09-08T14:17:03;33.60;47.30
14884;DHT22;7534;50.762;7.000;2023-09-08T14:19:30;33.80;47.00
14884;DHT22;7534;50.762;7.000;2023-09-08T14:21:56;33.50;47.10
14884;DHT22;7534;50.762;7.000;2023-09-08T14:24:23;33.60;46.90
14884;DHT22;7534;50.762;7.000;2023-09-08T14:26:49;33.90;47.30
14884;DHT22;7534;50.762;7.000;2023-09-08T14:29:16;33.90;47.00
14884;DHT22;7534;50.762;7.000;2023-09-08T14:31:42;33.70;47.00
14884;DHT22;7534;50.762;7.000;2023-09-08T14:34:09;33.60;47.70
14884;DHT22;7534;50.762;7.000;2023-09-08T14:36:35;33.70;47.30
14884;DHT22;7534;50.762;7.000;2023-09-08T14:39:00;33.90;48.10
14884;DHT22;7534;50.762;7.000;2023-09-08T14:41:27;33.80;47.20
14884;DHT22;7534;50.762;7.000;2023-09-08T14:43:53;33.90;47.20
14884;DHT22;7534;50.762;7.000;2023-09-08T14:46:20;33.90;47.10
14884;DHT22;7534;50.762;7.000;2023-09-08T14:48:45;33.50;47.30
14884;DHT22;7534;50.762;7.000;2023-09-08T14:51:11;33.50;47.90
14884;DHT22;7534;50.762;7.000;2023-09-08T14:53:37;33.70;48.60
14884;DHT22;7534;50.762;7.000;2023-09-08T14:56:03;33.80;48.70
14884;DHT22;7534;50.762;7.000;2023-09-08T14:58:30;33.70;48.40
14884;DHT22;7534;50.762;7.000;2023-09-08T15:01:04;33.60;49.10
14884;DHT22;7534;50.762;7.000;2023-09-08T15:03:33;33.70;49.20
14884;DHT22;7534;50.762;7.000;2023-09-08T15:06:02;33.80;48.30
14884;DHT22;7534;50.762;7.000;2023-09-08T15:08:28;33.70;49.00
14884;DHT22;7534;50.762;7.000;2023-09-08T15:10:55;33.80;48.70
14884;DHT22;7534;50.762;7.000;2023-09-08T15:13:21;33.90;48.50
14884;DHT22;7534;50.762;7.000;2023-09-08T15:15:47;34.00;48.60
14884;DHT22;7534;50.762;7.000;2023-09-08T15:18:13;33.90;48.50
14884;DHT22;7534;50.762;7.000;2023-09-08T15:20:39;33.80;49.40
14884;DHT22;7534;50.762;7.000;2023-09-08T15:23:06;33.80;49.30
14884;DHT22;7534;50.762;7.000;2023-09-08T15:25:34;34.00;50.00
14884;DHT22;7534;50.762;7.000;2023-09-08T15:28:00;34.00;49.40
14884;DHT22;7534;50.762;7.000;2023-09-08T15:30:26;33.90;49.00
14884;DHT22;7534;50.762;7.000;2023-09-08T15:32:51;33.80;48.60
14884;DHT22;7534;50.762;7.000;2023-09-08T15:35:17;33.70;49.30
14884;DHT22;7534;50.762;7.000;2023-09-08T15:37:44;33.70;49.60
14884;DHT22;7534;50.762;7.000;2023-09-08T15:40:10;33.50;49.70
14884;DHT22;7534;50.762;7.000;2023-09-08T15:42:40;33.80;49.40
14884;DHT22;7534;50.762;7.000;2023-09-08T15:45:07;33.70;50.70
14884;DHT22;7534;50.762;7.000;2023-09-08T15:47:33;33.70;50.50
14884;DHT22;7534;50.762;7.000;2023-09-08T15:49:58;33.60;50.20
14884;DHT22;7534;50.762;7.000;2023-09-08T15:55:45;34.00;49.10
14884;DHT22;7534;50.762;7.000;2023-09-08T16:01:27;33.70;50.40
14884;DHT22;7534;50.762;7.000;2023-09-08T16:03:53;33.80;49.90
14884;DHT22;7534;50.762;7.000;2023-09-08T16:06:18;33.70;49.90
14884;DHT22;7534;50.762;7.000;2023-09-08T16:08:44;33.50;50.10
14884;DHT22;7534;50.762;7.000;2023-09-08T16:11:10;33.50;50.60
14884;DHT22;7534;50.762;7.000;2023-09-08T16:13:36;33.40;50.20
14884;DHT22;7534;50.762;7.000;2023-09-08T16:16:05;33.50;50.30
14884;DHT22;7534;50.762;7.000;2023-09-08T16:18:31;33.60;50.90
14884;DHT22;7534;50.762;7.000;2023-09-08T16:20:57;33.60;50.30
14884;DHT22;7534;50.762;7.000;2023-09-08T16:23:23;33.40;50.20
14884;DHT22;7534;50.762;7.000;2023-09-08T16:25:49;33.30;50.60
14884;DHT22;7534;50.762;7.000;2023-09-08T16:28:16;33.10;51.50
14884;DHT22;7534;50.762;7.000;2023-09-08T16:30:42;33.10;52.40
14884;DHT22;7534;50.762;7.000;2023-09-08T16:33:08;33.00;52.20
14884;DHT22;7534;50.762;7.000;2023-09-08T16:35:34;33.10;52.30
14884;DHT22;7534;50.762;7.000;2023-09-08T16:38:01;33.20;52.30
14884;DHT22;7534;50.762;7.000;2023-09-08T16:40:27;33.10;52.70
14884;DHT22;7534;50.762;7.000;2023-09-08T16:42:53;32.90;53.00
14884;DHT22;7534;50.762;7.000;2023-09-08T16:45:20;32.60;54.40
14884;DHT22;7534;50.762;7.000;2023-09-08T16:47:46;32.50;54.10
14884;DHT22;7534;50.762;7.000;2023-09-08T16:50:11;32.30;54.60
14884;DHT22;7534;50.762;7.000;2023-09-08T16:52:37;32.10;55.10